Terminal Aerodrome Forecast
Issued by NWS Paducah, KY

Home | Current Version | Previous Version | Text Only | Print | Product List | Glossary On
Versions: 1 2 3 4 5 6 7 8 9 10 11 12 13 14 15 16
451
FTUS43 KPAH 241905 AAA
TAFEVV
TAF AMD
KEVV 241905Z 2419/2518 32007KT 6SM -RA BR BKN018 BKN080
      TEMPO 2419/2420 4SM -RA BR BKN008 OVC015
     FM242200 28006KT P6SM VCSH SCT025 BKN080
     FM250400 27007KT 5SM -RA BR BKN004 OVC025
     FM251100 29010KT P6SM VCSH BKN015=

USA.gov is the U.S. government's official web portal to all federal, state and local government web resources and services.